Time;durP1;ratioP1;P1;durP2;ratioP2;P2;SDS_P1;SDS_P2;PMS_P1;PMS_P2;Temp;Humidity;BMP_temperature;BMP_pressure;BME280_temperature;BME280_humidity;BME280_pressure;Samples;Min_cycle;Max_cycle;Signal;HPM_P1;HPM_P2
2022/10/13 00:00:45;;;;;;;9.18;4.00;;;10.10;99.90;;;;;;5034372;28;20038;-77
2022/10/13 00:03:11;;;;;;;11.77;4.45;;;10.10;99.90;;;;;;5035680;28;20021;-77
2022/10/13 00:05:41;;;;;;;11.15;3.92;;;10.10;99.90;;;;;;5035672;28;20067;-77
2022/10/13 00:08:07;;;;;;;13.65;4.85;;;10.10;99.90;;;;;;5033079;28;20488;-77
2022/10/13 00:10:36;;;;;;;11.48;4.50;;;10.20;99.90;;;;;;5034215;28;20014;-77
2022/10/13 00:13:01;;;;;;;12.70;4.72;;;10.10;99.90;;;;;;5035478;28;20021;-77
2022/10/13 00:15:27;;;;;;;10.85;5.18;;;10.10;99.90;;;;;;5035685;28;20028;-77
2022/10/13 00:17:53;;;;;;;12.23;5.25;;;10.20;99.90;;;;;;5034183;28;20112;-77
2022/10/13 00:20:18;;;;;;;12.88;4.97;;;10.20;99.90;;;;;;5035538;28;20033;-77
2022/10/13 00:22:44;;;;;;;11.13;5.35;;;10.20;99.90;;;;;;5035357;28;20055;-77
2022/10/13 00:25:09;;;;;;;12.98;4.97;;;10.20;99.90;;;;;;5034157;28;20021;-77
2022/10/13 00:27:35;;;;;;;11.70;4.35;;;10.20;99.90;;;;;;5033896;28;20112;-77
2022/10/13 00:30:01;;;;;;;14.40;4.93;;;10.20;99.90;;;;;;5033909;28;20026;-77
2022/10/13 00:32:26;;;;;;;12.45;4.68;;;10.30;99.90;;;;;;5033969;28;20083;-77
2022/10/13 00:34:52;;;;;;;12.90;4.78;;;10.20;99.90;;;;;;5034004;28;20017;-77
2022/10/13 00:37:17;;;;;;;15.75;6.18;;;10.30;99.90;;;;;;5033921;28;20024;-77
2022/10/13 00:39:43;;;;;;;14.80;6.05;;;10.30;99.90;;;;;;5034982;28;20048;-77
2022/10/13 00:42:12;;;;;;;13.40;4.93;;;10.30;99.90;;;;;;5034973;28;20429;-77
2022/10/13 00:45:29;;;;;;;12.88;5.75;;;11.20;99.90;;;;;;5034933;28;20075;-77
2022/10/13 00:48:00;;;;;;;16.05;5.10;;;10.40;99.90;;;;;;5000999;28;20052;-77
2022/10/13 00:50:36;;;;;;;12.10;5.20;;;10.40;99.90;;;;;;5033334;28;20013;-77
2022/10/13 00:53:04;;;;;;;17.65;5.70;;;10.40;99.90;;;;;;5034685;28;20151;-77
2022/10/13 00:55:32;;;;;;;12.38;5.35;;;10.50;99.90;;;;;;5033440;28;20025;-77
2022/10/13 00:58:01;;;;;;;11.57;3.80;;;10.50;99.90;;;;;;5033505;28;20026;-77
2022/10/13 01:00:28;;;;;;;23.77;6.22;;;10.90;99.90;;;;;;5034631;28;20033;-77
2022/10/13 01:02:53;;;;;;;15.45;5.70;;;10.60;99.90;;;;;;5033329;28;20033;-77
2022/10/13 01:05:20;;;;;;;18.92;5.50;;;10.50;99.90;;;;;;5033338;28;20041;-77
2022/10/13 01:07:48;;;;;;;16.15;4.80;;;11.20;99.90;;;;;;5034379;28;20030;-77
2022/10/13 01:10:28;;;;;;;11.23;5.18;;;10.60;99.90;;;;;;5034417;28;20026;-77
2022/10/13 01:13:27;;;;;;;18.60;5.50;;;10.60;99.90;;;;;;5035087;28;20021;-77
2022/10/13 01:16:04;;;;;;;16.70;5.10;;;10.70;99.90;;;;;;5034715;28;20075;-77
2022/10/13 01:18:52;;;;;;;13.13;6.47;;;10.70;99.90;;;;;;5033985;28;20026;-77
2022/10/13 01:21:32;;;;;;;15.40;4.78;;;10.80;99.90;;;;;;5043704;22;20037;-76
2022/10/13 01:24:35;;;;;;;8.43;4.70;;;10.90;99.90;;;;;;5034799;28;20104;-76
2022/10/13 01:27:04;;;;;;;12.45;5.47;;;10.90;99.90;;;;;;5034371;28;20021;-77
2022/10/13 01:29:46;;;;;;;15.13;4.97;;;11.00;99.90;;;;;;5032597;28;20029;-76
2022/10/13 01:32:48;;;;;;;14.10;5.45;;;11.00;99.90;;;;;;5034124;28;20373;-77
2022/10/13 01:35:18;;;;;;;11.18;4.35;;;11.20;99.90;;;;;;5034001;28;20096;-76
2022/10/13 01:37:59;;;;;;;13.32;5.22;;;11.20;99.90;;;;;;5032596;28;20432;-76
2022/10/13 01:40:37;;;;;;;11.60;5.50;;;11.30;99.90;;;;;;5032732;28;20076;-76
2022/10/13 01:43:29;;;;;;;10.57;4.32;;;11.40;99.90;;;;;;5034089;28;20022;-76
2022/10/13 01:46:07;;;;;;;10.02;4.15;;;11.40;99.90;;;;;;5032611;28;20484;-77
2022/10/13 01:48:36;;;;;;;11.45;3.95;;;11.40;99.90;;;;;;5033827;28;20025;-76
2022/10/13 01:51:04;;;;;;;;;;;11.40;99.90;;;;;;5032691;28;20492;-76
2022/10/13 01:53:30;;;;;;;12.43;4.20;;;11.50;99.90;;;;;;5033431;28;19948;-77
2022/10/13 01:55:59;;;;;;;13.95;4.93;;;11.50;99.90;;;;;;5032200;28;20026;-76
2022/10/13 01:58:31;;;;;;;8.80;4.28;;;11.60;99.90;;;;;;5032154;28;20511;-76
2022/10/13 02:01:12;;;;;;;12.48;5.15;;;11.60;99.90;;;;;;5031936;28;20116;-77
2022/10/13 02:03:58;;;;;;;10.55;4.30;;;11.60;99.90;;;;;;5033432;28;20025;-76
2022/10/13 02:06:50;;;;;;;10.70;5.25;;;11.60;99.90;;;;;;5033886;28;20104;-76
2022/10/13 02:09:44;;;;;;;13.25;4.63;;;11.60;99.90;;;;;;5033381;28;20033;-76
2022/10/13 02:12:21;;;;;;;9.55;4.25;;;11.60;99.90;;;;;;5033820;28;20487;-76
2022/10/13 02:14:48;;;;;;;11.38;5.20;;;11.60;99.90;;;;;;5033284;28;20087;-76
2022/10/13 02:17:15;;;;;;;13.73;4.53;;;11.60;99.90;;;;;;5033687;28;20503;-76
2022/10/13 02:19:40;;;;;;;12.43;5.15;;;11.70;99.90;;;;;;5031957;28;20053;-76
2022/10/13 02:22:09;;;;;;;14.77;4.85;;;11.70;99.90;;;;;;5033298;28;20065;-76
2022/10/13 02:24:35;;;;;;;;;;;11.80;99.90;;;;;;5033679;28;20542;-76
2022/10/13 02:27:03;;;;;;;10.57;4.07;;;11.80;99.90;;;;;;5031939;28;19905;-76
2022/10/13 02:29:29;;;;;;;13.57;4.90;;;11.80;99.90;;;;;;5033199;28;20029;-76
2022/10/13 02:31:55;;;;;;;9.75;4.45;;;11.90;99.90;;;;;;5032620;28;20036;-76
2022/10/13 02:34:21;;;;;;;13.07;5.40;;;12.00;99.90;;;;;;5033208;28;20033;-76
2022/10/13 02:36:46;;;;;;;13.07;4.85;;;11.90;99.90;;;;;;5031879;28;20014;-76
2022/10/13 02:39:12;;;;;;;10.63;4.78;;;12.00;99.90;;;;;;5031860;28;20017;-76
2022/10/13 02:41:38;;;;;;;10.52;4.93;;;12.00;99.90;;;;;;5031473;28;20037;-76
2022/10/13 02:44:04;;;;;;;12.82;4.50;;;12.00;99.90;;;;;;5032933;28;20417;-76
2022/10/13 02:46:33;;;;;;;10.88;4.57;;;12.00;99.90;;;;;;5031707;28;20018;-77
2022/10/13 02:48:59;;;;;;;11.25;4.50;;;11.90;99.90;;;;;;5032820;28;20395;-76
2022/10/13 02:51:24;;;;;;;10.05;4.72;;;13.30;99.90;;;;;;5031529;28;20010;-76
2022/10/13 02:53:50;;;;;;;10.35;4.93;;;11.80;99.90;;;;;;5031934;28;20021;-76
2022/10/13 02:56:15;;;;;;;16.33;5.00;;;11.80;99.90;;;;;;5032881;28;20030;-76
2022/10/13 02:58:41;;;;;;;13.73;5.05;;;11.80;99.90;;;;;;5031448;28;20058;-76
2022/10/13 03:01:13;;;;;;;10.73;4.85;;;11.70;99.90;;;;;;5032930;28;20029;-76
2022/10/13 03:03:38;;;;;;;11.88;4.38;;;14.30;99.90;;;;;;5031707;28;20017;-76
2022/10/13 03:06:14;;;;;;;13.30;4.85;;;11.80;99.90;;;;;;5033402;28;20032;-77
2022/10/13 03:08:42;;;;;;;10.27;4.47;;;11.90;99.90;;;;;;5031649;28;20581;-77
2022/10/13 03:11:07;;;;;;;11.07;4.07;;;11.90;99.90;;;;;;5032893;28;20052;-77
2022/10/13 03:13:33;;;;;;;13.82;5.00;;;11.90;99.90;;;;;;5033011;28;20022;-77
2022/10/13 03:15:58;;;;;;;8.70;4.38;;;11.90;99.90;;;;;;5031318;28;20107;-77
2022/10/13 03:18:24;;;;;;;15.80;5.28;;;11.90;99.90;;;;;;5032906;28;20457;-77
2022/10/13 03:21:03;;;;;;;10.25;4.55;;;11.90;99.90;;;;;;5032486;28;20030;-77
2022/10/13 03:23:28;;;;;;;14.85;5.25;;;11.90;99.90;;;;;;5032750;28;20028;-77
2022/10/13 03:25:54;;;;;;;12.25;4.57;;;11.90;99.90;;;;;;5033298;28;20026;-77
2022/10/13 03:28:20;;;;;;;15.77;4.60;;;11.90;99.90;;;;;;5031509;28;20083;-77
2022/10/13 03:30:46;;;;;;;14.57;5.05;;;11.90;99.90;;;;;;5031579;28;20061;-78
2022/10/13 03:33:12;;;;;;;13.38;4.75;;;11.90;99.90;;;;;;5032767;28;20080;-77
2022/10/13 03:35:38;;;;;;;13.52;5.53;;;11.90;99.90;;;;;;5032823;28;20029;-77
2022/10/13 03:38:03;;;;;;;13.55;5.43;;;11.90;99.90;;;;;;5032816;28;20538;-77
2022/10/13 03:40:29;;;;;;;11.90;4.57;;;11.90;99.90;;;;;;5032689;28;20025;-77
2022/10/13 03:42:54;;;;;;;14.43;5.32;;;11.80;99.90;;;;;;5032076;28;20029;-77
2022/10/13 03:45:20;;;;;;;12.25;5.18;;;11.80;99.90;;;;;;5035870;28;20475;-77
2022/10/13 03:47:46;;;;;;;11.77;5.22;;;11.80;99.90;;;;;;5034813;28;20373;-77
2022/10/13 03:50:11;;;;;;;12.48;4.75;;;11.90;99.90;;;;;;5036015;28;20033;-77
2022/10/13 03:52:37;;;;;;;12.80;4.95;;;11.80;99.90;;;;;;5034929;28;20024;-77
2022/10/13 03:55:06;;;;;;;14.85;5.20;;;11.80;99.90;;;;;;5034739;28;20024;-77
2022/10/13 03:57:31;;;;;;;;;;;11.90;99.90;;;;;;5036955;28;20034;-77
2022/10/13 03:59:57;;;;;;;16.55;4.93;;;11.90;99.90;;;;;;5036512;28;19928;-77
2022/10/13 04:02:23;;;;;;;11.52;4.53;;;12.00;99.90;;;;;;5036122;28;20029;-77
2022/10/13 04:04:49;;;;;;;11.95;5.45;;;12.00;99.90;;;;;;5036069;28;20060;-77
2022/10/13 04:07:14;;;;;;;12.68;4.35;;;12.10;99.90;;;;;;5035647;28;20021;-77
2022/10/13 04:09:41;;;;;;;16.30;5.00;;;12.00;99.90;;;;;;5035762;28;20033;-77
2022/10/13 04:12:07;;;;;;;13.27;5.72;;;12.00;99.90;;;;;;5035767;28;20026;-77
2022/10/13 04:14:33;;;;;;;11.70;4.22;;;;;;;;;;5036105;28;20531;-77
2022/10/13 04:16:59;;;;;;;15.27;5.18;;;12.10;99.90;;;;;;5036463;28;20036;-77
2022/10/13 04:19:25;;;;;;;12.82;4.53;;;12.00;99.90;;;;;;5035582;28;20033;-77
2022/10/13 04:21:50;;;;;;;15.68;5.13;;;12.10;99.90;;;;;;5035347;28;20037;-78
2022/10/13 04:24:17;;;;;;;15.82;4.90;;;12.10;99.90;;;;;;5036072;28;20018;-77
2022/10/13 04:26:44;;;;;;;9.35;4.32;;;12.10;99.90;;;;;;5035924;28;20112;-77
2022/10/13 04:29:10;;;;;;;11.30;4.75;;;12.00;99.90;;;;;;5034099;28;20501;-77
2022/10/13 04:31:37;;;;;;;14.70;4.75;;;12.00;99.90;;;;;;5035189;28;20112;-77
2022/10/13 04:34:03;;;;;;;12.88;4.90;;;12.00;99.90;;;;;;5035421;28;20026;-77
2022/10/13 04:36:29;;;;;;;17.17;5.82;;;11.90;99.90;;;;;;5034478;28;20388;-77
2022/10/13 04:38:54;;;;;;;20.08;5.93;;;11.90;99.90;;;;;;5034040;28;20022;-77
2022/10/13 04:41:20;;;;;;;13.30;5.20;;;11.90;99.90;;;;;;5033957;28;20167;-77
2022/10/13 04:43:48;;;;;;;10.95;4.85;;;11.90;99.90;;;;;;5035158;28;20039;-78
2022/10/13 04:46:17;;;;;;;11.02;4.40;;;11.90;99.90;;;;;;5034686;28;20392;-76
2022/10/13 04:48:43;;;;;;;13.43;5.47;;;11.90;99.90;;;;;;5033508;28;20029;-76
2022/10/13 04:51:12;;;;;;;18.02;4.53;;;12.70;99.90;;;;;;5034755;28;20025;-76
2022/10/13 04:53:39;;;;;;;10.80;4.43;;;12.00;99.90;;;;;;5033022;28;20052;-76
2022/10/13 04:56:08;;;;;;;15.35;4.95;;;12.10;99.90;;;;;;5033370;28;20017;-76
2022/10/13 04:58:35;;;;;;;11.75;4.97;;;12.00;99.90;;;;;;5033588;28;20033;-76
2022/10/13 05:01:02;;;;;;;13.70;4.68;;;12.00;99.90;;;;;;5033292;28;20040;-76
2022/10/13 05:03:30;;;;;;;16.67;5.47;;;12.00;99.90;;;;;;5034451;28;20030;-76
2022/10/13 05:05:56;;;;;;;14.65;4.82;;;11.80;99.90;;;;;;5035054;28;20033;-78
2022/10/13 05:08:22;;;;;;;17.52;5.50;;;12.70;99.90;;;;;;5033079;28;20028;-76
2022/10/13 05:11:00;;;;;;;12.65;5.60;;;12.10;99.90;;;;;;5034335;28;20021;-76
2022/10/13 05:13:28;;;;;;;14.85;5.20;;;12.10;99.90;;;;;;5033054;28;20057;-77
2022/10/13 05:15:54;;;;;;;15.75;5.38;;;12.10;99.90;;;;;;5033004;28;20071;-76
2022/10/13 05:18:19;;;;;;;15.52;5.70;;;12.10;99.90;;;;;;5034747;28;20017;-76
2022/10/13 05:20:45;;;;;;;15.48;5.53;;;12.10;99.90;;;;;;5032765;28;20041;-77
2022/10/13 05:23:13;;;;;;;14.77;5.55;;;12.10;99.90;;;;;;5034282;28;20017;-76
2022/10/13 05:25:39;;;;;;;18.67;6.32;;;12.10;99.90;;;;;;5034193;28;20148;-76
2022/10/13 05:28:06;;;;;;;11.70;5.40;;;12.10;99.90;;;;;;5034018;28;20105;-76
2022/10/13 05:30:34;;;;;;;15.55;5.63;;;12.10;99.90;;;;;;5034025;28;20373;-76
2022/10/13 05:33:00;;;;;;;13.38;4.75;;;12.20;99.90;;;;;;5032927;28;20052;-77
2022/10/13 05:35:26;;;;;;;13.60;5.63;;;12.20;99.90;;;;;;5032705;28;20018;-77
2022/10/13 05:37:52;;;;;;;12.88;5.72;;;12.20;99.90;;;;;;5033982;28;20030;-76
2022/10/13 05:40:20;;;;;;;17.60;5.65;;;12.20;99.90;;;;;;5032620;28;20027;-76
2022/10/13 05:42:46;;;;;;;14.23;5.75;;;12.10;99.90;;;;;;5033887;28;20440;-76
2022/10/13 05:45:12;;;;;;;16.98;6.78;;;12.10;99.90;;;;;;5033831;28;20084;-77
2022/10/13 05:47:37;;;;;;;13.10;5.95;;;12.10;99.90;;;;;;5032540;28;20129;-76
2022/10/13 05:50:03;;;;;;;16.27;5.85;;;12.10;99.90;;;;;;5033572;28;20079;-76
2022/10/13 05:52:32;;;;;;;15.57;5.63;;;12.10;99.90;;;;;;5016880;28;20415;-77
2022/10/13 05:55:01;;;;;;;;;;;12.10;99.90;;;;;;5033907;28;20017;-76
2022/10/13 05:57:30;;;;;;;;;;;12.10;99.90;;;;;;5032408;28;19905;-76
2022/10/13 06:00:05;;;;;;;15.85;5.50;;;12.10;99.90;;;;;;5032136;28;20376;-78
2022/10/13 06:02:36;;;;;;;13.38;5.78;;;12.10;99.90;;;;;;5033234;28;20099;-76
2022/10/13 06:05:04;;;;;;;13.20;5.00;;;12.20;99.90;;;;;;5031925;28;20075;-76
2022/10/13 06:07:30;;;;;;;13.20;5.72;;;12.20;99.90;;;;;;5033306;28;20076;-77
2022/10/13 06:09:57;;;;;;;18.23;7.38;;;12.10;99.90;;;;;;5033690;28;20017;-77
2022/10/13 06:12:24;;;;;;;15.43;5.38;;;12.20;99.90;;;;;;5032328;28;20025;-76
2022/10/13 06:14:50;;;;;;;18.40;5.90;;;12.20;99.90;;;;;;5033186;28;20020;-76
2022/10/13 06:17:15;;;;;;;17.95;6.28;;;12.20;99.90;;;;;;5033157;28;20034;-74
2022/10/13 06:19:41;;;;;;;23.13;6.45;;;12.10;99.90;;;;;;5031505;28;20025;-75
2022/10/13 06:22:07;;;;;;;17.00;5.75;;;12.10;99.90;;;;;;5031657;28;20480;-75
2022/10/13 06:24:33;;;;;;;18.08;5.70;;;12.20;99.90;;;;;;5033067;28;20084;-74
2022/10/13 06:26:58;;;;;;;21.77;5.78;;;12.10;99.90;;;;;;5031853;28;20025;-74
2022/10/13 06:29:24;;;;;;;14.27;5.70;;;12.10;99.90;;;;;;5031929;28;20033;-77
2022/10/13 06:31:50;;;;;;;16.33;6.63;;;12.10;99.90;;;;;;5031759;28;20057;-75
2022/10/13 06:34:15;;;;;;;19.40;6.28;;;12.10;99.90;;;;;;5033037;28;20449;-75
2022/10/13 06:36:41;;;;;;;17.42;5.95;;;12.10;99.90;;;;;;5031818;28;20020;-75
2022/10/13 06:39:07;;;;;;;13.77;5.53;;;12.10;99.90;;;;;;5032997;28;20013;-75
2022/10/13 06:41:33;;;;;;;15.32;5.95;;;12.10;99.90;;;;;;5032949;28;20036;-75
2022/10/13 06:44:02;;;;;;;20.05;7.25;;;12.10;99.90;;;;;;5031791;28;20021;-74
2022/10/13 06:46:27;;;;;;;20.80;8.57;;;12.10;99.90;;;;;;5033083;28;20033;-74
2022/10/13 06:48:53;;;;;;;19.17;7.03;;;12.10;99.90;;;;;;5032958;28;20109;-74
2022/10/13 06:51:21;;;;;;;15.25;6.85;;;12.10;99.90;;;;;;5031698;28;20025;-75
2022/10/13 06:53:47;;;;;;;20.90;6.93;;;12.10;99.90;;;;;;5033380;28;20045;-75
2022/10/13 06:56:13;;;;;;;19.52;7.25;;;12.10;99.90;;;;;;5033185;28;20105;-74
2022/10/13 06:58:41;;;;;;;21.85;7.05;;;12.20;99.90;;;;;;5033833;28;20028;-74
2022/10/13 07:01:06;;;;;;;18.47;7.33;;;12.20;99.90;;;;;;5033259;28;20040;-75
2022/10/13 07:03:32;;;;;;;17.73;7.38;;;12.20;99.90;;;;;;5033200;28;20264;-74
2022/10/13 07:06:03;;;;;;;15.43;6.88;;;12.20;99.90;;;;;;5033480;28;20500;-75
2022/10/13 07:08:28;;;;;;;19.27;9.38;;;12.30;99.90;;;;;;5033074;28;20025;-74
2022/10/13 07:10:54;;;;;;;16.17;7.80;;;12.40;99.90;;;;;;5033050;28;20032;-74
2022/10/13 07:13:19;;;;;;;21.45;9.07;;;12.40;99.90;;;;;;5033171;28;20101;-75
2022/10/13 07:15:45;;;;;;;24.48;11.30;;;12.40;99.90;;;;;;5032983;28;20029;-75
2022/10/13 07:18:10;;;;;;;22.73;9.32;;;12.40;99.90;;;;;;5035604;28;20026;-75
2022/10/13 07:20:36;;;;;;;20.60;8.98;;;12.50;99.90;;;;;;5035227;28;20037;-74
2022/10/13 07:23:02;;;;;;;19.45;9.48;;;12.50;99.90;;;;;;5036585;28;20029;-75
2022/10/13 07:25:28;;;;;;;20.73;10.05;;;12.50;99.90;;;;;;5035270;28;20045;-75
2022/10/13 07:27:54;;;;;;;27.35;9.95;;;12.50;99.90;;;;;;5036644;28;20456;-74
2022/10/13 07:30:19;;;;;;;22.10;9.95;;;12.60;99.90;;;;;;5036579;28;20048;-75
2022/10/13 07:32:45;;;;;;;25.83;10.27;;;12.60;99.90;;;;;;5036595;28;20480;-74
2022/10/13 07:35:11;;;;;;;23.67;9.85;;;12.60;99.90;;;;;;5037118;28;20033;-75
2022/10/13 07:37:38;;;;;;;25.55;10.93;;;12.60;99.90;;;;;;5036413;28;20025;-75
2022/10/13 07:40:05;;;;;;;23.67;10.88;;;12.70;99.90;;;;;;5034973;28;20021;-74
2022/10/13 07:42:30;;;;;;;31.17;10.98;;;12.70;99.90;;;;;;5036526;28;20041;-75
2022/10/13 07:44:56;;;;;;;25.75;10.48;;;12.80;99.90;;;;;;5036509;28;20025;-75
2022/10/13 07:47:22;;;;;;;23.80;11.10;;;12.80;99.90;;;;;;5036123;28;20021;-74
2022/10/13 07:49:47;;;;;;;30.77;11.82;;;12.90;99.90;;;;;;5036046;28;20028;-74
2022/10/13 07:52:13;;;;;;;21.52;10.27;;;14.20;99.90;;;;;;5036151;28;20021;-74
2022/10/13 07:54:38;;;;;;;22.00;10.20;;;12.90;99.90;;;;;;5035999;28;20072;-74
2022/10/13 07:57:04;;;;;;;26.58;11.05;;;13.20;99.90;;;;;;5036339;28;20037;-74
2022/10/13 07:59:32;;;;;;;21.60;9.95;;;13.10;99.90;;;;;;5036101;28;20068;-74
2022/10/13 08:01:59;;;;;;;21.23;11.30;;;13.10;99.90;;;;;;5035846;28;20026;-74
2022/10/13 08:04:31;;;;;;;24.33;10.45;;;13.20;99.90;;;;;;5036359;28;20392;-75
2022/10/13 08:06:57;;;;;;;22.63;10.30;;;13.20;99.90;;;;;;5035763;28;20480;-74
2022/10/13 08:09:24;;;;;;;23.52;10.65;;;13.20;99.90;;;;;;5036120;28;20025;-74
2022/10/13 08:11:49;;;;;;;36.88;10.88;;;13.30;99.90;;;;;;5035725;28;20538;-74
2022/10/13 08:14:15;;;;;;;20.40;9.93;;;13.40;99.90;;;;;;5035637;28;20021;-74
2022/10/13 08:16:44;;;;;;;25.65;10.27;;;13.40;99.90;;;;;;5034534;28;20485;-74
2022/10/13 08:19:13;;;;;;;;;;;13.50;99.90;;;;;;5036125;28;20429;-74
2022/10/13 08:21:38;;;;;;;;;;;13.60;99.90;;;;;;5035875;28;19913;-74
2022/10/13 08:24:05;;;;;;;28.45;10.10;;;13.70;99.90;;;;;;5034484;28;19905;-75
2022/10/13 08:26:31;;;;;;;17.33;8.50;;;13.70;99.90;;;;;;5035501;28;20420;-75
2022/10/13 08:28:56;;;;;;;19.08;8.88;;;13.70;99.90;;;;;;5033716;28;20032;-73
2022/10/13 08:31:22;;;;;;;23.35;9.65;;;13.80;99.90;;;;;;5034122;28;20013;-73
2022/10/13 08:33:48;;;;;;;24.55;10.05;;;14.20;99.90;;;;;;5035341;28;20020;-73
2022/10/13 08:36:16;;;;;;;18.10;9.40;;;14.80;99.90;;;;;;5035311;28;20022;-73
2022/10/13 08:38:42;;;;;;;17.63;8.23;;;13.90;99.90;;;;;;5035443;28;20028;-73
2022/10/13 08:41:15;;;;;;;22.17;8.10;;;13.90;99.90;;;;;;5034993;28;20029;-73
2022/10/13 08:43:44;;;;;;;15.75;7.80;;;14.00;99.90;;;;;;5035167;28;20017;-73
2022/10/13 08:46:12;;;;;;;15.48;7.88;;;14.00;99.90;;;;;;5035131;28;20018;-73
2022/10/13 08:48:41;;;;;;;19.92;8.70;;;14.10;99.90;;;;;;5033839;28;20390;-73
2022/10/13 08:51:07;;;;;;;17.58;8.90;;;14.10;99.90;;;;;;5034877;28;20021;-73
2022/10/13 08:53:39;;;;;;;23.33;9.43;;;14.10;99.90;;;;;;5035546;28;20025;-73
2022/10/13 08:56:12;;;;;;;18.52;9.32;;;16.50;99.90;;;;;;5033810;28;20076;-73
2022/10/13 08:58:40;;;;;;;17.52;8.63;;;14.20;99.90;;;;;;5034975;28;20025;-73
2022/10/13 09:01:09;;;;;;;17.65;9.25;;;14.20;99.90;;;;;;5034862;28;20029;-73
2022/10/13 09:03:44;;;;;;;20.63;9.85;;;14.20;99.90;;;;;;5034697;28;20040;-73
2022/10/13 09:06:20;;;;;;;21.13;7.95;;;14.20;99.90;;;;;;5033624;28;20022;-73
2022/10/13 09:08:55;;;;;;;18.70;8.68;;;14.20;99.90;;;;;;5035067;28;20057;-73
2022/10/13 09:11:21;;;;;;;17.27;8.88;;;14.20;99.90;;;;;;5034460;28;20060;-73
2022/10/13 09:13:48;;;;;;;20.90;8.68;;;14.10;99.90;;;;;;5034693;28;20014;-73
2022/10/13 09:16:14;;;;;;;19.92;8.02;;;14.10;99.90;;;;;;5034510;28;20030;-73
2022/10/13 09:18:39;;;;;;;17.95;8.98;;;14.10;99.90;;;;;;5034529;28;20524;-73
2022/10/13 09:21:17;;;;;;;18.42;8.43;;;14.10;99.90;;;;;;5033113;28;20049;-73
2022/10/13 09:23:43;;;;;;;14.05;8.73;;;14.10;99.90;;;;;;5034433;28;20392;-73
2022/10/13 09:26:22;;;;;;;19.63;9.07;;;14.20;99.90;;;;;;5034420;28;20026;-73
2022/10/13 09:28:49;;;;;;;20.98;8.18;;;14.20;99.90;;;;;;5033434;28;20412;-73
2022/10/13 09:31:24;;;;;;;18.45;8.13;;;14.20;99.90;;;;;;5034193;28;20070;-73
2022/10/13 09:34:19;;;;;;;13.70;7.65;;;14.20;99.90;;;;;;5034307;28;20473;-73
2022/10/13 09:37:05;;;;;;;14.77;7.50;;;14.20;99.90;;;;;;5031580;28;20124;-73
2022/10/13 09:39:32;;;;;;;16.35;8.15;;;14.30;99.90;;;;;;5034016;28;20108;-73
2022/10/13 09:42:27;;;;;;;14.63;7.00;;;14.30;99.90;;;;;;5034008;28;20030;-73
2022/10/13 09:45:15;;;;;;;13.00;7.40;;;14.50;99.90;;;;;;5032787;28;20025;-73
2022/10/13 09:47:53;;;;;;;14.13;6.35;;;14.70;99.90;;;;;;5033824;28;20022;-73
2022/10/13 09:50:23;;;;;;;11.13;6.65;;;14.90;99.90;;;;;;5034249;28;20021;-73
2022/10/13 09:52:52;;;;;;;13.75;6.20;;;15.10;99.90;;;;;;5034445;28;20025;-73
2022/10/13 09:55:35;;;;;;;;;;;15.10;99.90;;;;;;5033092;28;20079;-73
2022/10/13 09:58:18;;;;;;;17.23;6.57;;;15.30;99.90;;;;;;5034430;28;20233;-73
2022/10/13 10:00:44;;;;;;;17.23;6.82;;;15.30;99.90;;;;;;5033988;28;20420;-73
2022/10/13 10:03:36;;;;;;;14.25;6.78;;;15.30;99.90;;;;;;5033756;28;20477;-73
2022/10/13 10:06:08;;;;;;;11.20;6.35;;;15.30;99.90;;;;;;5027829;28;20400;-73
2022/10/13 10:08:58;;;;;;;18.45;6.63;;;15.30;99.90;;;;;;5033686;28;20029;-73
2022/10/13 10:11:36;;;;;;;9.90;4.95;;;15.40;99.90;;;;;;5033391;28;20041;-73
2022/10/13 10:14:21;;;;;;;17.20;6.15;;;15.40;99.90;;;;;;5032237;28;20021;-73
2022/10/13 10:16:58;;;;;;;18.58;6.75;;;15.40;99.90;;;;;;5034149;28;20517;-73
2022/10/13 10:19:27;;;;;;;10.68;5.55;;;15.30;99.90;;;;;;5033532;28;20040;-73
2022/10/13 10:22:18;;;;;;;14.40;5.93;;;15.40;99.90;;;;;;5033551;28;20427;-73
2022/10/13 10:24:58;;;;;;;12.68;4.70;;;15.40;99.90;;;;;;5034038;28;20030;-73
2022/10/13 10:27:35;;;;;;;14.70;6.35;;;15.40;99.90;;;;;;5033593;28;20432;-73
2022/10/13 10:30:02;;;;;;;10.88;5.43;;;15.50;99.90;;;;;;5033391;28;20030;-73
2022/10/13 10:32:46;;;;;;;15.00;5.75;;;15.60;99.90;;;;;;5032218;28;20024;-73
2022/10/13 10:35:19;;;;;;;21.23;5.70;;;15.70;99.90;;;;;;5033384;28;20026;-73
2022/10/13 10:37:51;;;;;;;13.80;5.22;;;16.10;99.90;;;;;;5032256;28;20079;-73
2022/10/13 10:40:28;;;;;;;11.02;4.75;;;16.30;99.90;;;;;;5031927;28;20036;-73
2022/10/13 10:43:16;;;;;;;11.27;4.55;;;16.40;99.90;;;;;;5032318;28;20439;-73
2022/10/13 10:45:43;;;;;;;11.35;5.47;;;16.60;99.90;;;;;;5031968;28;20033;-73
2022/10/13 10:48:22;;;;;;;12.52;4.80;;;16.70;99.90;;;;;;5033257;28;20480;-73
2022/10/13 10:50:49;;;;;;;;;;;16.70;99.90;;;;;;5034131;28;20034;-73
2022/10/13 10:53:20;;;;;;;11.20;4.90;;;16.50;99.90;;;;;;5036705;28;19941;-73
2022/10/13 10:55:56;;;;;;;12.23;4.80;;;16.50;99.90;;;;;;5036057;28;20135;-73
2022/10/13 10:58:45;;;;;;;14.70;5.75;;;16.50;99.90;;;;;;5037229;28;20112;-73
2022/10/13 11:01:11;;;;;;;11.95;5.38;;;16.50;99.90;;;;;;5037450;28;20095;-73
2022/10/13 11:03:56;;;;;;;10.95;4.63;;;16.40;99.90;;;;;;5037121;28;20025;-73
2022/10/13 11:06:40;;;;;;;12.55;5.22;;;16.40;99.90;;;;;;5037131;28;20034;-73
2022/10/13 11:09:06;;;;;;;18.30;4.93;;;16.20;99.90;;;;;;5035751;28;20404;-73
2022/10/13 11:11:34;;;;;;;11.27;4.97;;;16.30;99.90;;;;;;5036907;28;20024;-73
2022/10/13 11:14:06;;;;;;;10.82;4.95;;;16.30;99.90;;;;;;5037507;28;20410;-73
2022/10/13 11:16:33;;;;;;;12.15;5.15;;;;;;;;;;5037011;28;20032;-73
2022/10/13 11:19:30;;;;;;;11.82;4.50;;;16.30;99.90;;;;;;5035533;28;20395;-73
2022/10/13 11:21:56;;;;;;;13.32;5.60;;;16.30;99.90;;;;;;5035675;28;20044;-73
2022/10/13 11:24:40;;;;;;;13.60;5.30;;;16.20;99.90;;;;;;5035436;28;20025;-73
2022/10/13 11:27:15;;;;;;;16.38;6.30;;;16.20;99.90;;;;;;5036884;28;20076;-73
2022/10/13 11:29:52;;;;;;;18.25;5.82;;;16.00;99.90;;;;;;5037054;28;20435;-73
2022/10/13 11:32:24;;;;;;;11.18;5.47;;;15.80;99.90;;;;;;5037143;28;20021;-73
2022/10/13 11:35:22;;;;;;;15.20;7.55;;;15.80;99.90;;;;;;5035202;28;20035;-73
2022/10/13 11:37:57;;;;;;;15.63;5.97;;;15.70;99.90;;;;;;5036506;28;20056;-73
2022/10/13 11:40:35;;;;;;;15.80;6.32;;;15.70;99.90;;;;;;5036467;28;20030;-73
2022/10/13 11:43:45;;;;;;;16.65;5.25;;;15.70;99.90;;;;;;5035301;28;20029;-73
2022/10/13 11:46:23;;;;;;;14.88;6.70;;;15.70;99.90;;;;;;5035039;28;20026;-73
2022/10/13 11:49:04;;;;;;;14.98;5.95;;;15.80;99.90;;;;;;5036898;28;20025;-73
2022/10/13 11:51:48;;;;;;;14.73;6.72;;;15.90;99.90;;;;;;5035095;28;20060;-73
2022/10/13 11:54:25;;;;;;;13.32;5.38;;;15.90;99.90;;;;;;5036115;28;20029;-73
2022/10/13 11:56:53;;;;;;;11.35;5.72;;;16.00;99.90;;;;;;5035087;28;20504;-73
2022/10/13 11:59:28;;;;;;;15.90;6.90;;;16.10;99.90;;;;;;5036173;28;20472;-73
2022/10/13 12:01:58;;;;;;;18.10;6.35;;;16.10;99.90;;;;;;5036014;28;20022;-73
2022/10/13 12:04:26;;;;;;;13.60;6.15;;;16.10;99.90;;;;;;5034926;28;20033;-73
2022/10/13 12:06:56;;;;;;;14.95;6.75;;;16.00;99.90;;;;;;5036028;28;20392;-73
2022/10/13 12:09:23;;;;;;;17.52;6.75;;;15.90;99.90;;;;;;5036482;28;20354;-73
2022/10/13 12:12:12;;;;;;;13.52;6.53;;;15.80;99.90;;;;;;5034384;28;20013;-73
2022/10/13 12:14:44;;;;;;;16.45;6.50;;;15.90;99.90;;;;;;5036372;28;20026;-75
2022/10/13 12:17:19;;;;;;;12.50;5.65;;;15.80;99.90;;;;;;5035732;28;20096;-75
2022/10/13 12:19:44;;;;;;;15.95;6.70;;;15.70;99.90;;;;;;5035556;28;20111;-75
2022/10/13 12:22:17;;;;;;;13.57;7.30;;;15.70;99.90;;;;;;5034378;28;20037;-73
2022/10/13 12:24:54;;;;;;;13.57;6.60;;;15.70;99.90;;;;;;5034387;28;20409;-73
2022/10/13 12:27:20;;;;;;;14.77;5.72;;;15.60;99.90;;;;;;5035765;28;20392;-73
2022/10/13 12:29:47;;;;;;;15.50;6.10;;;15.70;99.90;;;;;;5035348;28;20025;-75
2022/10/13 12:32:22;;;;;;;12.60;5.68;;;15.70;99.90;;;;;;5035508;28;20031;-73
2022/10/13 12:34:47;;;;;;;14.43;5.90;;;15.70;99.90;;;;;;5035549;28;20514;-75
2022/10/13 12:37:36;;;;;;;15.93;5.43;;;15.60;99.90;;;;;;5035651;28;20013;-73
2022/10/13 12:40:03;;;;;;;15.45;6.35;;;15.60;99.90;;;;;;5035333;28;20547;-73
2022/10/13 12:42:31;;;;;;;15.52;5.90;;;15.60;99.90;;;;;;5033986;28;20392;-75
2022/10/13 12:44:59;;;;;;;13.25;6.40;;;15.50;99.90;;;;;;5035225;28;20029;-73
2022/10/13 12:47:47;;;;;;;14.15;5.72;;;15.40;99.90;;;;;;5035818;28;20026;-73
2022/10/13 12:50:28;;;;;;;13.35;6.15;;;15.30;99.90;;;;;;5033724;28;20112;-73
2022/10/13 12:53:17;;;;;;;12.13;5.93;;;15.30;99.90;;;;;;5034043;28;20026;-73
2022/10/13 12:56:00;;;;;;;10.85;6.43;;;15.30;99.90;;;;;;5035083;28;20018;-73
2022/10/13 12:58:33;;;;;;;12.77;5.15;;;15.20;99.90;;;;;;5035573;28;20033;-73